Time;durP1;ratioP1;P1;durP2;ratioP2;P2;SDS_P1;SDS_P2;PMS_P1;PMS_P2;Temp;Humidity;BMP_temperature;BMP_pressure;BME280_temperature;BME280_humidity;BME280_pressure;Samples;Min_cycle;Max_cycle;Signal;HPM_P1;HPM_P2
2023/10/19 00:00:44;;;;;;;7.22;1.98;;;17.30;99.90;;;;;;5114530;28;20486;-63
2023/10/19 00:03:11;;;;;;;6.68;1.92;;;17.30;99.90;;;;;;5114147;28;20563;-62
2023/10/19 00:05:38;;;;;;;7.85;2.40;;;17.30;99.90;;;;;;5114640;28;20121;-63
2023/10/19 00:08:13;;;;;;;5.30;1.85;;;17.20;99.90;;;;;;5114696;28;20049;-63
2023/10/19 00:10:46;;;;;;;7.00;2.20;;;17.30;99.90;;;;;;5114366;28;20034;-63
2023/10/19 00:13:13;;;;;;;4.78;1.98;;;17.60;99.90;;;;;;5114059;28;20044;-63
2023/10/19 00:15:40;;;;;;;9.10;2.08;;;17.80;99.90;;;;;;5114496;28;20077;-63
2023/10/19 00:18:32;;;;;;;6.47;2.08;;;17.90;99.90;;;;;;5114696;28;20031;-62
2023/10/19 00:23:39;;;;;;;5.30;2.15;;;18.00;99.90;;;;;;5097225;28;20123;-63
2023/10/19 00:26:08;;;;;;;5.40;1.90;;;18.10;99.90;;;;;;5113691;28;20140;-63
2023/10/19 00:28:38;;;;;;;5.47;1.90;;;18.10;99.90;;;;;;5089216;28;20036;-63
2023/10/19 00:31:08;;;;;;;4.20;1.83;;;18.10;99.90;;;;;;5093801;28;20039;-63
2023/10/19 00:33:41;;;;;;;4.28;1.80;;;18.20;99.90;;;;;;5093329;28;20050;-63
2023/10/19 00:36:08;;;;;;;6.23;2.33;;;18.30;99.90;;;;;;5093658;28;20093;-63
2023/10/19 00:43:44;;;;;;;5.25;2.08;;;18.20;99.90;;;;;;5093316;28;20040;-63
2023/10/19 00:48:48;;;;;;;4.43;2.17;;;18.00;99.90;;;;;;5093510;28;20039;-63
2023/10/19 00:54:14;;;;;;;4.90;2.00;;;17.80;99.90;;;;;;5029575;28;20463;-63
2023/10/19 00:56:46;;;;;;;5.85;2.42;;;17.70;99.90;;;;;;5029224;28;20141;-62
2023/10/19 00:59:14;;;;;;;6.82;2.80;;;17.70;99.90;;;;;;5025612;28;20113;-62
2023/10/19 01:01:45;;;;;;;5.78;2.40;;;17.60;99.90;;;;;;5010700;28;20061;-63
2023/10/19 01:04:15;;;;;;;4.65;2.53;;;17.70;99.90;;;;;;5014614;28;20037;-62
2023/10/19 01:06:44;;;;;;;5.30;2.60;;;17.70;99.90;;;;;;5030596;28;20026;-63
2023/10/19 01:09:14;;;;;;;6.05;2.28;;;17.70;99.90;;;;;;5025885;28;20034;-63
2023/10/19 01:11:49;;;;;;;7.25;2.60;;;17.70;99.90;;;;;;5010260;28;20034;-63
2023/10/19 01:14:21;;;;;;;7.22;2.58;;;17.70;99.90;;;;;;5010685;28;20036;-63
2023/10/19 01:16:49;;;;;;;5.53;2.50;;;17.70;99.90;;;;;;5013952;28;20133;-63
2023/10/19 01:19:18;;;;;;;6.30;2.70;;;17.80;99.90;;;;;;5028856;28;20037;-62
2023/10/19 01:21:50;;;;;;;5.55;2.45;;;17.90;99.90;;;;;;5030281;28;20025;-62
2023/10/19 01:24:33;;;;;;;5.00;2.40;;;17.90;99.90;;;;;;5025023;28;20034;-63
2023/10/19 01:27:00;;;;;;;5.45;2.35;;;17.90;99.90;;;;;;5014748;28;20084;-62
2023/10/19 01:29:28;;;;;;;6.45;2.40;;;17.90;99.90;;;;;;5059106;28;20466;-63
2023/10/19 01:32:05;;;;;;;5.93;2.47;;;17.90;99.90;;;;;;5102909;28;20070;-63
2023/10/19 01:34:33;;;;;;;5.75;2.33;;;17.90;99.90;;;;;;5113028;27;20106;-63
2023/10/19 01:37:03;;;;;;;6.80;2.53;;;17.90;99.90;;;;;;5112770;28;20028;-63
2023/10/19 01:39:29;;;;;;;7.30;2.25;;;17.80;99.90;;;;;;5112587;28;20038;-63
2023/10/19 01:41:57;;;;;;;6.03;2.47;;;17.80;99.90;;;;;;5112846;28;20091;-63
2023/10/19 01:44:24;;;;;;;5.53;2.70;;;17.80;99.90;;;;;;5112626;28;20031;-63
2023/10/19 01:46:50;;;;;;;4.75;2.78;;;17.80;99.90;;;;;;5112422;28;20482;-63
2023/10/19 01:49:28;;;;;;;5.03;2.65;;;17.90;99.90;;;;;;5112894;28;20146;-63
2023/10/19 01:51:54;;;;;;;5.15;2.22;;;18.00;99.90;;;;;;5111949;28;20505;-63
2023/10/19 01:54:24;;;;;;;5.22;2.28;;;18.10;99.90;;;;;;5112039;28;20039;-63
2023/10/19 01:56:56;;;;;;;6.80;2.60;;;18.30;99.90;;;;;;5111880;28;20028;-63
2023/10/19 01:59:27;;;;;;;9.23;2.75;;;18.30;99.90;;;;;;5112276;28;20065;-63
2023/10/19 02:01:54;;;;;;;6.40;2.35;;;18.30;99.90;;;;;;5112349;28;20514;-63
2023/10/19 02:04:21;;;;;;;6.68;2.47;;;18.40;99.90;;;;;;5112229;28;20019;-63
2023/10/19 02:06:48;;;;;;;4.85;2.28;;;18.40;99.90;;;;;;5111843;28;20065;-63
2023/10/19 02:09:26;;;;;;;4.72;2.20;;;18.50;99.90;;;;;;5111653;28;20031;-63
2023/10/19 02:11:57;;;;;;;5.40;2.30;;;18.40;99.90;;;;;;5112138;28;20032;-63
2023/10/19 02:14:25;;;;;;;5.55;2.50;;;18.50;99.90;;;;;;5112121;28;20042;-63
2023/10/19 02:16:59;;;;;;;8.15;2.60;;;18.60;99.90;;;;;;5111843;28;20047;-64
2023/10/19 02:19:26;;;;;;;5.35;2.05;;;18.60;99.90;;;;;;5111951;28;20089;-63
2023/10/19 02:21:57;;;;;;;4.57;2.17;;;18.60;99.90;;;;;;5111681;28;20034;-64
2023/10/19 02:24:23;;;;;;;6.15;2.25;;;18.70;99.90;;;;;;5112263;28;20026;-64
2023/10/19 02:26:57;;;;;;;5.80;2.10;;;18.60;99.90;;;;;;5111527;28;20031;-63
2023/10/19 02:29:24;;;;;;;5.57;2.17;;;18.50;99.90;;;;;;5111924;28;20048;-63
2023/10/19 02:31:50;;;;;;;6.40;2.10;;;18.40;99.90;;;;;;5112193;28;20026;-63
2023/10/19 02:34:16;;;;;;;5.25;2.15;;;18.20;99.90;;;;;;5111694;28;20461;-63
2023/10/19 02:36:43;;;;;;;6.15;2.35;;;18.10;99.90;;;;;;5110886;28;20042;-63
2023/10/19 02:39:11;;;;;;;8.45;2.50;;;18.10;99.90;;;;;;5111898;28;20473;-63
2023/10/19 02:41:39;;;;;;;6.57;2.30;;;18.00;99.90;;;;;;5111744;28;20034;-63
2023/10/19 02:44:19;;;;;;;6.88;2.25;;;18.00;99.90;;;;;;5111528;28;20424;-63
2023/10/19 02:46:53;;;;;;;6.53;2.20;;;17.90;99.90;;;;;;5111111;28;20024;-63
2023/10/19 02:49:20;;;;;;;5.28;2.20;;;17.90;99.90;;;;;;5111540;28;20457;-63
2023/10/19 02:51:49;;;;;;;6.78;2.22;;;17.80;99.90;;;;;;5111069;28;20502;-63
2023/10/19 02:54:20;;;;;;;6.25;2.00;;;17.80;99.90;;;;;;5111257;28;20490;-63
2023/10/19 02:56:54;;;;;;;6.32;1.98;;;17.80;99.90;;;;;;5111020;28;20094;-63
2023/10/19 02:59:23;;;;;;;;;;;17.80;99.90;;;;;;5112289;28;20024;-63
2023/10/19 03:02:01;;;;;;;5.80;2.20;;;17.80;99.90;;;;;;5111141;28;19908;-63
2023/10/19 03:04:28;;;;;;;6.47;2.45;;;17.70;99.90;;;;;;5111241;28;20062;-63
2023/10/19 03:06:56;;;;;;;7.53;2.50;;;17.70;99.90;;;;;;5110857;28;20028;-63
2023/10/19 03:09:27;;;;;;;7.25;2.00;;;17.80;99.90;;;;;;5111453;28;20125;-63
2023/10/19 03:11:56;;;;;;;8.45;2.38;;;17.70;99.90;;;;;;5111277;28;20063;-63
2023/10/19 03:14:25;;;;;;;5.18;2.10;;;17.70;99.90;;;;;;5111271;28;20036;-63
2023/10/19 03:16:51;;;;;;;7.65;2.63;;;17.70;99.90;;;;;;5110376;28;20032;-63
2023/10/19 03:19:17;;;;;;;6.68;2.55;;;17.70;99.90;;;;;;5111728;28;20537;-63
2023/10/19 03:21:42;;;;;;;6.88;2.10;;;17.60;99.90;;;;;;5114877;28;20553;-63
2023/10/19 03:24:13;;;;;;;6.43;2.00;;;17.60;99.90;;;;;;5115280;28;20428;-63
2023/10/19 03:26:48;;;;;;;5.07;1.90;;;17.60;99.90;;;;;;5115125;28;20042;-64
2023/10/19 03:29:15;;;;;;;8.15;2.50;;;17.70;99.90;;;;;;5114997;28;20050;-63
2023/10/19 03:31:44;;;;;;;5.28;1.92;;;17.80;99.90;;;;;;5115071;28;20035;-63
2023/10/19 03:34:16;;;;;;;5.40;1.95;;;17.90;99.90;;;;;;5114887;28;20028;-63
2023/10/19 03:36:42;;;;;;;7.88;2.17;;;18.00;99.90;;;;;;5115392;28;20450;-63
2023/10/19 03:39:17;;;;;;;6.35;2.15;;;18.00;99.90;;;;;;5114755;28;20034;-63
2023/10/19 03:41:44;;;;;;;5.30;2.58;;;18.10;99.90;;;;;;5115256;28;20023;-64
2023/10/19 03:46:59;;;;;;;7.45;2.40;;;18.10;99.90;;;;;;5115096;28;20114;-64
2023/10/19 03:49:33;;;;;;;8.85;2.40;;;18.00;99.90;;;;;;5114501;28;20037;-64
2023/10/19 03:52:00;;;;;;;6.88;2.10;;;18.10;99.90;;;;;;5115034;28;20461;-63
2023/10/19 03:54:27;;;;;;;8.38;2.15;;;18.00;99.90;;;;;;5114848;28;20028;-63
2023/10/19 03:56:55;;;;;;;6.38;2.17;;;18.00;99.90;;;;;;5114588;28;20039;-63
2023/10/19 03:59:21;;;;;;;4.60;1.92;;;17.90;99.90;;;;;;5114290;28;20115;-63
2023/10/19 04:01:47;;;;;;;5.93;1.90;;;17.90;99.90;;;;;;5114836;28;20032;-64
2023/10/19 04:04:13;;;;;;;4.40;1.80;;;17.90;99.90;;;;;;5114236;28;20054;-63
2023/10/19 04:06:58;;;;;;;6.00;2.13;;;17.80;99.90;;;;;;5114472;28;20031;-64
2023/10/19 04:09:28;;;;;;;6.22;2.03;;;17.60;99.90;;;;;;5114685;28;20030;-63
2023/10/19 04:11:56;;;;;;;5.15;1.60;;;17.50;99.90;;;;;;5114189;28;20118;-63
2023/10/19 04:14:21;;;;;;;5.75;1.70;;;17.40;99.90;;;;;;5114814;28;20028;-64
2023/10/19 04:16:48;;;;;;;5.25;1.83;;;17.40;99.90;;;;;;5114112;28;20433;-63
2023/10/19 04:19:15;;;;;;;6.10;1.98;;;17.40;99.90;;;;;;5114225;28;20455;-63
2023/10/19 04:21:46;;;;;;;4.70;1.63;;;17.40;99.90;;;;;;5113912;28;20110;-63
2023/10/19 04:24:12;;;;;;;5.30;1.75;;;17.40;99.90;;;;;;5113834;28;20135;-63
2023/10/19 04:26:38;;;;;;;5.82;2.17;;;17.40;99.90;;;;;;5113374;28;20032;-63
2023/10/19 04:29:11;;;;;;;6.90;2.22;;;17.40;99.90;;;;;;5110827;28;20047;-63
2023/10/19 04:31:49;;;;;;;7.03;2.10;;;17.40;99.90;;;;;;5112775;28;20043;-64
2023/10/19 04:34:20;;;;;;;7.05;2.42;;;17.40;99.90;;;;;;5111589;28;20080;-63
2023/10/19 04:36:47;;;;;;;5.55;1.95;;;17.30;99.90;;;;;;5113322;28;20036;-63
2023/10/19 04:39:13;;;;;;;6.55;2.20;;;17.30;99.90;;;;;;5113451;28;20028;-64
2023/10/19 04:41:44;;;;;;;7.00;1.92;;;17.10;99.90;;;;;;5113775;28;20156;-62
2023/10/19 04:44:09;;;;;;;6.70;2.20;;;17.10;99.90;;;;;;5113746;28;20035;-63
2023/10/19 04:46:36;;;;;;;4.72;1.70;;;17.00;99.90;;;;;;5113295;28;20026;-63
2023/10/19 04:49:03;;;;;;;5.95;1.70;;;16.90;99.90;;;;;;5114188;28;20035;-63
2023/10/19 04:51:29;;;;;;;5.47;1.92;;;16.90;99.90;;;;;;5113539;28;20027;-63
2023/10/19 04:53:55;;;;;;;8.45;2.03;;;16.80;99.90;;;;;;5113732;28;20031;-63
2023/10/19 04:56:21;;;;;;;5.38;1.85;;;16.80;99.90;;;;;;5113367;28;20543;-63
2023/10/19 04:58:47;;;;;;;5.72;1.90;;;16.80;99.90;;;;;;5113370;28;20023;-63
2023/10/19 05:01:14;;;;;;;6.30;2.00;;;16.70;99.90;;;;;;5113080;28;20485;-63
2023/10/19 05:03:41;;;;;;;5.60;1.88;;;16.70;99.90;;;;;;5113489;28;20023;-63
2023/10/19 05:06:07;;;;;;;5.72;1.80;;;16.60;99.90;;;;;;5113172;28;20032;-64
2023/10/19 05:08:32;;;;;;;8.23;1.77;;;16.60;99.90;;;;;;5113035;28;20028;-63
2023/10/19 05:11:01;;;;;;;4.22;1.50;;;16.80;99.90;;;;;;5113491;28;20065;-64
2023/10/19 05:13:28;;;;;;;5.68;1.95;;;17.00;99.90;;;;;;5113461;28;20038;-64
2023/10/19 05:15:58;;;;;;;2.85;1.50;;;17.10;99.90;;;;;;5112930;28;20032;-64
2023/10/19 05:18:25;;;;;;;6.60;1.80;;;17.10;99.90;;;;;;5112899;28;20035;-63
2023/10/19 05:20:57;;;;;;;4.20;1.75;;;17.20;99.90;;;;;;5113244;28;20019;-63
2023/10/19 05:23:24;;;;;;;3.53;1.35;;;17.30;99.90;;;;;;5112943;28;20036;-63
2023/10/19 05:25:59;;;;;;;4.70;1.80;;;17.40;99.90;;;;;;5112651;28;20486;-63
2023/10/19 05:28:25;;;;;;;5.03;1.40;;;17.30;99.90;;;;;;5109758;28;20043;-63
2023/10/19 05:30:51;;;;;;;4.43;1.45;;;17.30;99.90;;;;;;5092357;28;20070;-63
2023/10/19 05:33:20;;;;;;;5.00;1.40;;;17.30;99.90;;;;;;5091337;28;20068;-63
2023/10/19 05:35:49;;;;;;;4.13;1.60;;;17.30;99.90;;;;;;5092505;28;20043;-63
2023/10/19 05:38:16;;;;;;;4.18;1.30;;;17.30;99.90;;;;;;5091826;28;20035;-63
2023/10/19 05:40:45;;;;;;;5.32;1.60;;;17.40;99.90;;;;;;5113028;28;20077;-63
2023/10/19 05:43:11;;;;;;;3.70;1.42;;;17.30;99.90;;;;;;5112429;28;20031;-63
2023/10/19 05:45:38;;;;;;;3.95;1.60;;;17.20;99.90;;;;;;5106369;28;20043;-63
2023/10/19 05:48:06;;;;;;;3.58;1.58;;;17.10;99.90;;;;;;5093753;28;20047;-63
2023/10/19 05:50:35;;;;;;;4.20;1.70;;;16.90;99.90;;;;;;5092707;28;20103;-63
2023/10/19 05:53:03;;;;;;;4.85;1.45;;;16.90;99.90;;;;;;5091839;28;20039;-64
2023/10/19 05:55:28;;;;;;;3.35;1.38;;;16.80;99.90;;;;;;5093738;28;20016;-63
2023/10/19 05:57:55;;;;;;;6.78;1.92;;;16.80;99.90;;;;;;5105828;28;20490;-63
2023/10/19 06:00:23;;;;;;;6.13;2.00;;;16.70;99.90;;;;;;5112071;28;20545;-63
2023/10/19 06:02:51;;;;;;;3.72;1.52;;;16.70;99.90;;;;;;5112679;28;20170;-63
2023/10/19 06:05:17;;;;;;;8.13;2.03;;;16.70;99.90;;;;;;5112960;28;20064;-63
2023/10/19 06:07:45;;;;;;;7.07;1.92;;;16.70;99.90;;;;;;5110656;28;20445;-63
2023/10/19 06:10:15;;;;;;;6.63;2.30;;;16.70;99.90;;;;;;5097674;28;20028;-63
2023/10/19 06:12:42;;;;;;;5.28;2.35;;;16.80;99.90;;;;;;5091749;28;20059;-64
2023/10/19 06:15:10;;;;;;;7.28;2.45;;;16.90;99.90;;;;;;5091646;28;20027;-63
2023/10/19 06:17:37;;;;;;;7.97;2.35;;;17.10;99.90;;;;;;5102116;28;20632;-63
2023/10/19 06:20:04;;;;;;;9.50;3.53;;;17.40;99.90;;;;;;5110463;28;20038;-63
2023/10/19 06:22:30;;;;;;;10.10;4.25;;;17.70;99.90;;;;;;5110681;28;20015;-63
2023/10/19 06:24:56;;;;;;;8.15;2.72;;;18.00;99.90;;;;;;5093485;28;20468;-63
2023/10/19 06:27:22;;;;;;;7.85;2.55;;;18.10;99.90;;;;;;5110740;28;20448;-63
2023/10/19 06:29:49;;;;;;;9.25;2.42;;;18.20;99.90;;;;;;5111382;28;20052;-63
2023/10/19 06:32:15;;;;;;;6.60;3.20;;;18.40;99.90;;;;;;5111691;28;20067;-63
2023/10/19 06:34:41;;;;;;;9.55;2.70;;;18.50;99.90;;;;;;5112156;28;20047;-63
2023/10/19 06:37:09;;;;;;;5.75;2.45;;;18.40;99.90;;;;;;5111714;28;20494;-63
2023/10/19 06:39:34;;;;;;;8.15;2.72;;;18.50;99.90;;;;;;5111050;28;20502;-63
2023/10/19 06:42:00;;;;;;;8.30;2.22;;;18.50;99.90;;;;;;5111797;28;20022;-62
2023/10/19 06:44:26;;;;;;;5.18;1.92;;;18.70;99.90;;;;;;5111300;28;20028;-62
2023/10/19 06:46:51;;;;;;;4.68;1.73;;;18.80;99.90;;;;;;5111301;28;20032;-63
2023/10/19 06:49:17;;;;;;;4.18;1.52;;;18.80;99.90;;;;;;5111655;28;20402;-62
2023/10/19 06:51:43;;;;;;;4.13;1.48;;;19.00;99.90;;;;;;5111551;28;20038;-64
2023/10/19 06:54:08;;;;;;;3.45;1.70;;;19.20;99.90;;;;;;5111584;28;20019;-63
2023/10/19 06:56:37;;;;;;;4.20;1.63;;;19.30;99.90;;;;;;5111519;28;20020;-64
2023/10/19 06:59:05;;;;;;;5.88;1.80;;;19.50;99.90;;;;;;5110792;28;20571;-64
2023/10/19 07:01:32;;;;;;;5.38;1.58;;;19.60;99.90;;;;;;5111071;28;20056;-64
2023/10/19 07:03:58;;;;;;;4.38;1.75;;;19.60;99.90;;;;;;5111423;28;20028;-63
2023/10/19 07:06:24;;;;;;;5.35;1.80;;;19.70;99.90;;;;;;5111808;28;20032;-63
2023/10/19 07:08:50;;;;;;;6.05;1.88;;;19.80;99.90;;;;;;5111455;28;20370;-63
2023/10/19 07:11:15;;;;;;;4.18;1.50;;;19.80;99.90;;;;;;5111135;28;20032;-63
2023/10/19 07:13:41;;;;;;;4.35;1.40;;;19.90;99.90;;;;;;5111006;28;20106;-64
2023/10/19 07:16:10;;;;;;;5.53;1.90;;;19.80;99.90;;;;;;5111178;28;20032;-64
2023/10/19 07:18:36;;;;;;;8.25;1.80;;;19.80;99.90;;;;;;5111484;28;20559;-63
2023/10/19 07:21:03;;;;;;;3.08;1.40;;;19.70;99.90;;;;;;5111052;28;20517;-64
2023/10/19 07:23:29;;;;;;;4.40;1.77;;;19.70;99.90;;;;;;5110982;28;20587;-63
2023/10/19 07:25:56;;;;;;;5.22;1.63;;;19.50;99.90;;;;;;5111156;28;20032;-63
2023/10/19 07:28:26;;;;;;;4.93;1.52;;;19.40;99.90;;;;;;5111507;28;20047;-64
2023/10/19 07:30:52;;;;;;;5.55;1.55;;;19.20;99.90;;;;;;5111043;28;20024;-63
2023/10/19 07:33:19;;;;;;;5.78;1.83;;;19.00;99.90;;;;;;5107495;28;20047;-63
2023/10/19 07:35:54;;;;;;;9.02;2.00;;;18.80;99.90;;;;;;5110739;28;20034;-63
2023/10/19 07:38:21;;;;;;;4.88;1.60;;;18.60;99.90;;;;;;5110705;28;20435;-63
2023/10/19 07:40:47;;;;;;;5.82;1.98;;;18.50;99.90;;;;;;5092765;28;20028;-64
2023/10/19 07:43:13;;;;;;;6.03;1.88;;;18.40;99.90;;;;;;5092012;28;20031;-64
2023/10/19 07:45:39;;;;;;;6.35;2.15;;;18.20;99.90;;;;;;5110505;28;20027;-63
2023/10/19 07:48:10;;;;;;;6.07;1.92;;;18.20;99.90;;;;;;5111167;28;20034;-63
2023/10/19 07:50:39;;;;;;;6.78;1.83;;;18.10;99.90;;;;;;5111086;28;20070;-63
2023/10/19 07:53:04;;;;;;;6.82;2.20;;;18.20;99.90;;;;;;5111314;28;20218;-64
2023/10/19 07:55:31;;;;;;;5.18;1.70;;;18.20;99.90;;;;;;5110776;28;20449;-63
2023/10/19 07:58:00;;;;;;;7.00;1.73;;;18.20;99.90;;;;;;5110752;28;20039;-63
2023/10/19 08:00:26;;;;;;;5.78;2.00;;;18.20;99.90;;;;;;5111299;28;20062;-63
2023/10/19 08:02:53;;;;;;;4.55;1.80;;;18.20;99.90;;;;;;5110869;28;20028;-63
2023/10/19 08:05:19;;;;;;;6.15;2.00;;;18.20;99.90;;;;;;5110589;28;20034;-63
2023/10/19 08:07:49;;;;;;;6.20;1.70;;;18.10;99.90;;;;;;5113785;28;20032;-63
2023/10/19 08:10:16;;;;;;;4.97;1.63;;;18.10;99.90;;;;;;5095908;28;20425;-63
2023/10/19 08:12:44;;;;;;;6.03;1.77;;;18.20;99.90;;;;;;5110160;28;20117;-62
2023/10/19 08:15:11;;;;;;;3.00;1.50;;;18.20;99.90;;;;;;5114516;28;20042;-61
2023/10/19 08:17:41;;;;;;;4.82;1.85;;;18.20;99.90;;;;;;5099956;28;20040;-64
2023/10/19 08:23:05;;;;;;;6.32;1.75;;;18.20;99.90;;;;;;5100834;28;20040;-64
2023/10/19 08:25:30;;;;;;;4.40;1.70;;;18.20;99.90;;;;;;5113604;28;20052;-64
2023/10/19 08:27:57;;;;;;;4.57;1.90;;;18.30;99.90;;;;;;5100927;28;20441;-63
2023/10/19 08:30:23;;;;;;;4.55;1.75;;;18.40;99.90;;;;;;5114014;28;20647;-63
2023/10/19 08:32:51;;;;;;;5.20;1.90;;;18.60;99.90;;;;;;5113418;28;20410;-64
2023/10/19 08:35:24;;;;;;;6.30;1.92;;;18.70;99.90;;;;;;5114411;28;20050;-64
2023/10/19 08:37:50;;;;;;;6.38;2.10;;;18.80;99.90;;;;;;5114110;28;20039;-64
2023/10/19 08:40:17;;;;;;;4.90;1.98;;;18.80;99.90;;;;;;5113539;28;20019;-64
2023/10/19 08:42:45;;;;;;;4.63;1.75;;;18.90;99.90;;;;;;5113831;28;20047;-64
2023/10/19 08:45:16;;;;;;;5.72;2.38;;;19.00;99.90;;;;;;5095606;28;20562;-64
2023/10/19 08:47:56;;;;;;;3.15;1.70;;;19.00;99.90;;;;;;5113799;28;20023;-64
2023/10/19 08:50:24;;;;;;;3.22;1.92;;;19.20;99.90;;;;;;5113740;28;20436;-63
2023/10/19 08:52:54;;;;;;;4.85;1.52;;;19.20;99.90;;;;;;5114023;28;20039;-64
2023/10/19 08:55:20;;;;;;;5.85;1.70;;;19.20;99.90;;;;;;5113596;28;20106;-64
2023/10/19 08:57:51;;;;;;;7.38;1.80;;;19.40;99.90;;;;;;5113602;28;20115;-64
2023/10/19 09:00:18;;;;;;;5.15;1.58;;;19.60;99.90;;;;;;5113874;28;20110;-63
2023/10/19 09:02:48;;;;;;;4.63;1.40;;;19.50;99.90;;;;;;5113304;28;20028;-64
2023/10/19 09:05:25;;;;;;;4.47;1.48;;;19.50;99.90;;;;;;5113404;28;20062;-64
2023/10/19 09:07:55;;;;;;;4.00;1.80;;;19.40;99.90;;;;;;5113228;28;20047;-63
2023/10/19 09:10:31;;;;;;;4.50;1.20;;;19.40;99.90;;;;;;5113497;28;20030;-63
2023/10/19 09:13:10;;;;;;;3.80;1.38;;;19.30;99.90;;;;;;5113641;28;20035;-64
2023/10/19 09:15:39;;;;;;;3.00;1.50;;;19.40;99.90;;;;;;5113132;28;20506;-64
2023/10/19 09:18:22;;;;;;;8.70;1.83;;;19.40;99.90;;;;;;5112644;28;20051;-64
2023/10/19 09:20:53;;;;;;;168.20;23.05;;;19.40;99.90;;;;;;5113247;28;20020;-64
2023/10/19 09:23:21;;;;;;;129.98;17.27;;;19.40;99.90;;;;;;5113045;28;20038;-63
2023/10/19 09:25:48;;;;;;;31.13;5.95;;;19.40;99.90;;;;;;5113340;28;20027;-64
2023/10/19 09:28:14;;;;;;;21.13;3.65;;;19.40;99.90;;;;;;5113057;28;20550;-64
2023/10/19 09:30:41;;;;;;;17.73;3.00;;;19.40;99.90;;;;;;5113232;28;20110;-64
2023/10/19 09:33:09;;;;;;;6.18;1.40;;;19.40;99.90;;;;;;5112612;28;20506;-64
2023/10/19 09:35:37;;;;;;;7.63;1.70;;;19.40;99.90;;;;;;5113348;28;20099;-64
2023/10/19 09:38:05;;;;;;;9.57;2.33;;;19.40;99.90;;;;;;5112339;28;20042;-64
2023/10/19 09:40:30;;;;;;;8.32;1.50;;;19.40;99.90;;;;;;5113037;28;20069;-64
2023/10/19 09:42:57;;;;;;;9.55;1.90;;;19.40;99.90;;;;;;5113121;28;20020;-63
2023/10/19 09:45:27;;;;;;;12.88;2.30;;;19.40;99.90;;;;;;5113017;28;20102;-64
2023/10/19 09:47:54;;;;;;;14.90;2.75;;;19.50;99.90;;;;;;5094384;28;20482;-64
2023/10/19 09:50:20;;;;;;;5.72;1.70;;;19.60;99.90;;;;;;5112567;28;20023;-64
2023/10/19 09:52:46;;;;;;;6.10;1.60;;;19.70;99.90;;;;;;5112269;28;20444;-64
2023/10/19 09:55:23;;;;;;;5.25;1.55;;;19.70;99.90;;;;;;5112957;28;20462;-64
2023/10/19 09:58:14;;;;;;;5.25;1.83;;;19.80;99.90;;;;;;5112474;28;20063;-64
2023/10/19 10:00:44;;;;;;;7.05;1.80;;;19.80;99.90;;;;;;5112330;28;20028;-64
2023/10/19 10:03:45;;;;;;;8.68;1.92;;;19.90;99.90;;;;;;5112297;28;20019;-64
2023/10/19 10:06:16;;;;;;;7.18;1.98;;;20.10;99.90;;;;;;5112102;28;20027;-64
2023/10/19 10:08:45;;;;;;;6.80;1.88;;;20.20;99.90;;;;;;5112042;28;20030;-64
2023/10/19 10:11:19;;;;;;;7.05;1.80;;;20.30;99.90;;;;;;5112303;28;20024;-64
2023/10/19 10:13:46;;;;;;;7.68;2.65;;;20.40;99.90;;;;;;5112371;28;20101;-64
2023/10/19 10:16:16;;;;;;;8.15;2.30;;;20.60;99.90;;;;;;5112158;28;20032;-64
2023/10/19 10:18:44;;;;;;;8.63;1.83;;;20.60;99.90;;;;;;5112152;28;20042;-64
2023/10/19 10:21:15;;;;;;;5.07;1.70;;;20.60;99.90;;;;;;5112039;28;20031;-64
2023/10/19 10:23:56;;;;;;;6.88;2.13;;;20.80;99.90;;;;;;5112348;28;20030;-64
2023/10/19 10:26:25;;;;;;;5.82;1.73;;;20.80;99.90;;;;;;5112060;28;20111;-64
2023/10/19 10:29:19;;;;;;;5.72;1.50;;;20.90;99.90;;;;;;5111575;28;20040;-64
2023/10/19 10:31:49;;;;;;;4.57;1.58;;;21.00;99.90;;;;;;5112097;28;20020;-65
2023/10/19 10:34:42;;;;;;;3.22;1.35;;;21.10;99.90;;;;;;5112440;28;20096;-64
2023/10/19 10:37:13;;;;;;;5.07;1.50;;;21.20;99.90;;;;;;5112215;28;20035;-64
2023/10/19 10:39:44;;;;;;;5.22;1.40;;;21.20;99.90;;;;;;5112143;28;20678;-64
2023/10/19 10:42:11;;;;;;;4.68;1.50;;;21.20;99.90;;;;;;5111805;28;20106;-64
2023/10/19 10:44:40;;;;;;;3.00;1.27;;;21.30;99.90;;;;;;5111836;28;20024;-64
2023/10/19 10:47:16;;;;;;;3.08;1.30;;;21.30;99.90;;;;;;5111616;28;20028;-64
2023/10/19 10:49:53;;;;;;;2.25;1.00;;;21.30;99.90;;;;;;5111366;28;20492;-64
2023/10/19 10:52:29;;;;;;;2.70;1.15;;;21.20;99.90;;;;;;5111599;28;20038;-64
2023/10/19 10:54:56;;;;;;;3.55;1.00;;;21.10;99.90;;;;;;5111352;28;20031;-64
2023/10/19 10:57:23;;;;;;;3.15;0.90;;;21.10;99.90;;;;;;5111728;28;20042;-64
2023/10/19 11:00:03;;;;;;;2.80;1.00;;;21.00;99.90;;;;;;5111568;28;20039;-64
2023/10/19 11:02:29;;;;;;;3.92;1.00;;;20.90;99.90;;;;;;5111390;28;20050;-64
2023/10/19 11:04:55;;;;;;;2.67;1.00;;;20.90;99.90;;;;;;5111164;28;20493;-64
2023/10/19 11:07:21;;;;;;;2.80;0.85;;;20.80;99.90;;;;;;5111918;28;20402;-64
2023/10/19 11:09:47;;;;;;;2.92;0.90;;;20.80;99.90;;;;;;5111453;28;20024;-64
2023/10/19 11:12:17;;;;;;;1.92;0.80;;;20.80;99.90;;;;;;5093247;28;20032;-64
2023/10/19 11:14:57;;;;;;;2.65;1.00;;;20.80;99.90;;;;;;5111218;28;20435;-64
2023/10/19 11:17:32;;;;;;;0.77;0.70;;;20.90;99.90;;;;;;5111304;28;20058;-64
2023/10/19 11:19:58;;;;;;;3.30;0.88;;;20.80;99.90;;;;;;5110998;28;20032;-64
2023/10/19 11:22:26;;;;;;;2.28;1.10;;;20.90;99.90;;;;;;5111422;28;20020;-64
2023/10/19 11:24:53;;;;;;;3.28;1.17;;;20.90;99.90;;;;;;5111061;28;20039;-65
2023/10/19 11:27:37;;;;;;;1.95;0.90;;;20.90;99.90;;;;;;5111292;28;20030;-64
2023/10/19 11:30:04;;;;;;;3.90;0.88;;;20.90;99.90;;;;;;5111021;28;20105;-64
2023/10/19 11:32:40;;;;;;;2.17;0.95;;;21.00;99.90;;;;;;5111147;28;20027;-64
2023/10/19 11:35:09;;;;;;;2.00;0.80;;;21.00;99.90;;;;;;5111262;28;20081;-64
2023/10/19 11:37:48;;;;;;;3.15;1.00;;;21.00;99.90;;;;;;5111274;28;20493;-64
2023/10/19 11:40:15;;;;;;;2.08;1.02;;;21.00;99.90;;;;;;5111344;28;20073;-64
2023/10/19 11:42:40;;;;;;;1.98;0.90;;;21.10;99.90;;;;;;5114931;28;20026;-64
2023/10/19 11:45:07;;;;;;;4.35;0.90;;;21.20;99.90;;;;;;5115395;28;20102;-64
2023/10/19 11:47:32;;;;;;;2.65;0.90;;;21.40;99.90;;;;;;5114647;28;20028;-64
2023/10/19 11:49:58;;;;;;;1.48;0.80;;;21.60;99.90;;;;;;5115148;28;20111;-64
2023/10/19 11:52:24;;;;;;;1.75;0.80;;;21.80;99.90;;;;;;5114872;28;20038;-64
2023/10/19 11:54:49;;;;;;;1.73;0.75;;;21.90;99.90;;;;;;5115073;28;20110;-64
2023/10/19 11:57:15;;;;;;;1.33;0.88;;;21.90;99.90;;;;;;5115268;28;20027;-64
2023/10/19 11:59:41;;;;;;;1.50;0.80;;;22.00;99.90;;;;;;5114746;28;20023;-64
2023/10/19 12:02:07;;;;;;;1.83;0.70;;;22.00;99.90;;;;;;5114438;28;20409;-64
2023/10/19 12:04:36;;;;;;;1.20;0.77;;;22.10;99.90;;;;;;5115052;28;20031;-64
2023/10/19 12:07:03;;;;;;;1.75;0.70;;;22.00;99.90;;;;;;5114683;28;20111;-64
2023/10/19 12:09:29;;;;;;;1.05;0.75;;;22.10;99.90;;;;;;5114707;28;20175;-64
2023/10/19 12:11:55;;;;;;;1.95;1.10;;;22.00;99.90;;;;;;5114597;28;20023;-64
2023/10/19 12:14:22;;;;;;;1.75;0.73;;;22.00;99.90;;;;;;5096797;28;20035;-64
2023/10/19 12:16:48;;;;;;;2.47;0.80;;;22.10;99.90;;;;;;5114232;28;20034;-64
2023/10/19 12:19:15;;;;;;;1.55;0.77;;;22.10;99.90;;;;;;5114577;28;20027;-64
2023/10/19 12:21:44;;;;;;;1.23;0.70;;;22.10;99.90;;;;;;5114354;28;20028;-64
2023/10/19 12:24:10;;;;;;;1.95;0.73;;;22.10;99.90;;;;;;5114293;28;20030;-65
2023/10/19 12:26:36;;;;;;;1.73;0.70;;;22.20;99.90;;;;;;5114575;28;20032;-65
2023/10/19 12:29:04;;;;;;;1.25;0.80;;;22.20;99.90;;;;;;5114490;28;20567;-64
2023/10/19 12:31:30;;;;;;;1.40;0.80;;;22.10;99.90;;;;;;5113858;28;20024;-64
2023/10/19 12:33:56;;;;;;;1.05;0.80;;;22.00;99.90;;;;;;5114142;28;20474;-64
2023/10/19 12:36:31;;;;;;;1.33;0.85;;;21.90;99.90;;;;;;5114239;28;20058;-64
2023/10/19 12:38:57;;;;;;;1.08;0.80;;;21.80;99.90;;;;;;5114525;28;20458;-64
2023/10/19 12:41:27;;;;;;;1.02;0.73;;;21.70;99.90;;;;;;5114191;28;20036;-64
2023/10/19 12:43:57;;;;;;;0.90;0.70;;;21.70;99.90;;;;;;5113459;28;20041;-64
2023/10/19 12:46:29;;;;;;;1.73;0.88;;;21.60;99.90;;;;;;5114051;28;20027;-64
2023/10/19 12:48:58;;;;;;;1.90;0.80;;;21.50;99.90;;;;;;5113936;28;20374;-64
2023/10/19 12:51:24;;;;;;;2.45;0.90;;;21.50;99.90;;;;;;5113855;28;20030;-64
2023/10/19 12:53:54;;;;;;;1.13;0.70;;;21.50;99.90;;;;;;5113618;28;20470;-64
2023/10/19 12:56:21;;;;;;;0.80;0.70;;;21.50;99.90;;;;;;5113865;28;20055;-64
2023/10/19 12:58:48;;;;;;;1.40;0.70;;;21.50;99.90;;;;;;5114184;28;20505;-64
2023/10/19 13:01:18;;;;;;;1.55;0.80;;;21.40;99.90;;;;;;5113261;28;20035;-64
2023/10/19 13:03:45;;;;;;;1.92;0.80;;;21.40;99.90;;;;;;5113713;28;20028;-64
2023/10/19 13:06:14;;;;;;;2.20;0.90;;;21.40;99.90;;;;;;5113570;28;20440;-64
2023/10/19 13:08:43;;;;;;;1.60;0.90;;;21.40;99.90;;;;;;5113607;28;20026;-63
2023/10/19 13:11:15;;;;;;;1.30;0.75;;;21.50;99.90;;;;;;5113550;28;20027;-64
2023/10/19 13:13:41;;;;;;;1.65;0.80;;;21.50;99.90;;;;;;5113363;28;20035;-64